Time;durP1;ratioP1;P1;durP2;ratioP2;P2;SDS_P1;SDS_P2;PMS_P1;PMS_P2;Temp;Humidity;BMP_temperature;BMP_pressure;BME280_temperature;BME280_humidity;BME280_pressure;Samples;Min_cycle;Max_cycle;Signal;HPM_P1;HPM_P2
2022/04/26 03:38:36;;;;;;;11.45;4.20;;;7.80;99.90;;;;;;4994244;28;20097;-38
2022/04/26 03:41:02;;;;;;;12.05;4.68;;;7.80;99.90;;;;;;5006176;28;20407;-39
2022/04/26 03:43:29;;;;;;;13.15;4.75;;;7.80;99.90;;;;;;5008561;28;20034;-39
2022/04/26 03:45:55;;;;;;;17.63;5.32;;;7.80;99.90;;;;;;5013766;28;20048;-38
2022/04/26 03:48:21;;;;;;;9.98;4.38;;;7.80;99.90;;;;;;4994132;28;20452;-37
2022/04/26 03:50:47;;;;;;;11.25;5.38;;;7.80;99.90;;;;;;5013630;28;20053;-38
2022/04/26 03:53:12;;;;;;;10.35;5.03;;;7.80;99.90;;;;;;5013312;28;20038;-38
2022/04/26 03:55:38;;;;;;;13.02;4.95;;;7.80;99.90;;;;;;5005212;28;20046;-39
2022/04/26 03:58:04;;;;;;;9.60;4.57;;;7.70;99.90;;;;;;4993773;28;20141;-38
2022/04/26 04:00:29;;;;;;;13.88;5.45;;;7.70;99.90;;;;;;4984459;28;20050;-39
2022/04/26 04:02:55;;;;;;;9.05;4.80;;;7.70;99.90;;;;;;5013367;28;20041;-39
2022/04/26 04:05:24;;;;;;;11.63;4.82;;;7.70;99.90;;;;;;5013537;28;20515;-38
2022/04/26 04:07:50;;;;;;;6.88;4.15;;;7.70;99.90;;;;;;5012533;28;20463;-38
2022/04/26 04:10:15;;;;;;;11.13;4.32;;;7.70;99.90;;;;;;4995635;28;20050;-37
2022/04/26 04:12:41;;;;;;;11.60;4.93;;;7.70;99.90;;;;;;5012562;28;20059;-37
2022/04/26 04:15:07;;;;;;;13.23;4.18;;;7.70;99.90;;;;;;4995461;28;20120;-40
2022/04/26 04:17:33;;;;;;;12.93;4.32;;;7.70;99.90;;;;;;5012457;28;20486;-39
2022/04/26 04:19:59;;;;;;;11.15;4.45;;;7.60;99.90;;;;;;5012618;28;20144;-39
2022/04/26 04:22:24;;;;;;;10.20;4.45;;;7.60;99.90;;;;;;4995315;28;20120;-39
2022/04/26 04:24:50;;;;;;;10.10;4.30;;;7.60;99.90;;;;;;5013030;28;20121;-38
2022/04/26 04:27:16;;;;;;;11.35;4.07;;;7.60;99.90;;;;;;5012865;28;20038;-41
2022/04/26 04:29:41;;;;;;;13.68;4.40;;;7.60;99.90;;;;;;5002580;28;20054;-38
2022/04/26 04:32:07;;;;;;;13.35;4.20;;;7.70;99.90;;;;;;5012413;28;20505;-40
2022/04/26 04:34:33;;;;;;;14.60;5.05;;;7.70;99.90;;;;;;5012595;28;20050;-40
2022/04/26 04:36:58;;;;;;;17.25;6.13;;;7.70;99.90;;;;;;5012628;28;20082;-38
2022/04/26 04:39:27;;;;;;;11.82;4.25;;;7.70;99.90;;;;;;5005825;28;20042;-37
2022/04/26 04:41:53;;;;;;;11.45;4.28;;;7.70;99.90;;;;;;4992543;28;20045;-38
2022/04/26 04:44:19;;;;;;;9.85;4.57;;;7.70;99.90;;;;;;5000150;28;20045;-38
2022/04/26 04:46:45;;;;;;;13.00;4.47;;;7.70;99.90;;;;;;4994990;28;20068;-39
2022/04/26 04:49:11;;;;;;;10.52;4.63;;;7.70;99.90;;;;;;5012309;28;20052;-37
2022/04/26 04:51:37;;;;;;;13.88;4.32;;;7.70;99.90;;;;;;5012337;28;20033;-38
2022/04/26 04:54:04;;;;;;;13.77;5.18;;;7.70;99.90;;;;;;4999554;28;20046;-38
2022/04/26 04:56:31;;;;;;;8.25;3.97;;;7.70;99.90;;;;;;4998513;28;20046;-40
2022/04/26 04:58:57;;;;;;;10.98;4.53;;;7.80;99.90;;;;;;4992670;28;20046;-38
2022/04/26 05:01:23;;;;;;;10.02;4.25;;;7.80;99.90;;;;;;5000831;28;20034;-38
2022/04/26 05:03:49;;;;;;;8.43;4.20;;;7.80;99.90;;;;;;5012438;28;20037;-38
2022/04/26 05:06:16;;;;;;;17.45;5.30;;;7.80;99.90;;;;;;5011878;28;20124;-38
2022/04/26 05:08:45;;;;;;;8.85;4.20;;;7.80;99.90;;;;;;4994432;28;20069;-37
2022/04/26 05:11:11;;;;;;;11.85;4.60;;;7.80;99.90;;;;;;5011910;28;20069;-37
2022/04/26 05:13:37;;;;;;;11.20;4.18;;;7.80;99.90;;;;;;5012088;28;20038;-39
2022/04/26 05:16:03;;;;;;;10.02;4.38;;;7.90;99.90;;;;;;4994353;28;20053;-38
2022/04/26 05:18:29;;;;;;;12.63;3.97;;;7.90;99.90;;;;;;5011975;28;20034;-39
2022/04/26 05:20:55;;;;;;;8.25;4.07;;;7.90;99.90;;;;;;5012164;28;20038;-40
2022/04/26 05:26:06;;;;;;;13.55;4.05;;;7.90;99.90;;;;;;5011731;28;20069;-38
2022/04/26 05:28:31;;;;;;;13.00;3.83;;;7.90;99.90;;;;;;5011933;28;20139;-38
2022/04/26 05:30:57;;;;;;;10.15;4.20;;;8.00;99.90;;;;;;5011861;28;20517;-39
2022/04/26 05:33:25;;;;;;;12.85;4.28;;;7.90;99.90;;;;;;5011993;28;20490;-40
2022/04/26 05:35:52;;;;;;;11.68;4.03;;;7.90;99.90;;;;;;5012211;28;20037;-39
2022/04/26 05:38:18;;;;;;;15.15;4.53;;;7.90;99.90;;;;;;5011709;28;20057;-41
2022/04/26 05:40:44;;;;;;;8.80;4.20;;;7.90;99.90;;;;;;4993904;28;20125;-40
2022/04/26 05:43:11;;;;;;;13.57;4.82;;;7.90;99.90;;;;;;5011953;28;20136;-40
2022/04/26 05:45:37;;;;;;;10.30;4.18;;;7.90;99.90;;;;;;5011507;28;20038;-39
2022/04/26 05:48:04;;;;;;;9.55;3.95;;;7.90;99.90;;;;;;5012072;28;20096;-39
2022/04/26 05:50:30;;;;;;;11.52;4.35;;;8.00;99.90;;;;;;5011656;28;20060;-39
2022/04/26 05:52:56;;;;;;;11.07;3.60;;;8.00;99.90;;;;;;5011976;28;20038;-39
2022/04/26 05:55:21;;;;;;;10.45;4.07;;;8.00;99.90;;;;;;5005512;28;20034;-39
2022/04/26 05:57:47;;;;;;;13.55;4.28;;;8.00;99.90;;;;;;4991778;28;20034;-40
2022/04/26 06:00:14;;;;;;;10.35;3.97;;;8.00;99.90;;;;;;4991609;28;20042;-39
2022/04/26 06:02:40;;;;;;;11.63;3.92;;;8.00;99.90;;;;;;4991713;28;20502;-39
2022/04/26 06:05:06;;;;;;;13.13;4.53;;;8.00;99.90;;;;;;4991892;28;20500;-39
2022/04/26 06:07:32;;;;;;;13.30;4.60;;;8.00;99.90;;;;;;4991545;28;20580;-39
2022/04/26 06:09:58;;;;;;;14.50;4.10;;;8.00;99.90;;;;;;4980376;28;20075;-39
2022/04/26 06:12:26;;;;;;;7.97;3.38;;;8.00;99.90;;;;;;5011140;28;20114;-39
2022/04/26 06:14:56;;;;;;;10.10;4.35;;;8.00;99.90;;;;;;5011086;28;20503;-38
2022/04/26 06:17:22;;;;;;;8.45;3.63;;;8.10;99.90;;;;;;4996798;28;20068;-38
2022/04/26 06:19:48;;;;;;;9.25;3.60;;;8.10;99.90;;;;;;5009684;28;20079;-38
2022/04/26 06:22:15;;;;;;;9.82;3.50;;;8.20;99.90;;;;;;4977090;28;20113;-38
2022/04/26 06:24:40;;;;;;;10.93;3.97;;;8.20;99.90;;;;;;5010866;28;20038;-38
2022/04/26 06:27:06;;;;;;;9.70;3.63;;;8.30;99.90;;;;;;5010795;28;20061;-39
2022/04/26 06:29:32;;;;;;;12.45;3.72;;;8.30;99.90;;;;;;4993064;28;20490;-39
2022/04/26 06:31:58;;;;;;;10.20;3.80;;;8.40;99.90;;;;;;5010804;28;20038;-39
2022/04/26 06:34:24;;;;;;;9.50;3.55;;;8.50;99.90;;;;;;5010892;28;20041;-39
2022/04/26 06:36:50;;;;;;;11.52;3.72;;;8.50;99.90;;;;;;5010884;28;20048;-39
2022/04/26 06:39:16;;;;;;;7.85;3.90;;;8.50;99.90;;;;;;5010810;28;20042;-38
2022/04/26 06:41:42;;;;;;;10.50;3.60;;;8.60;99.90;;;;;;5010968;28;20045;-38
2022/04/26 06:44:08;;;;;;;10.23;3.45;;;8.70;99.90;;;;;;5009580;28;20037;-39
2022/04/26 06:46:36;;;;;;;6.57;3.40;;;8.70;99.90;;;;;;5010988;28;20041;-38
2022/04/26 06:49:02;;;;;;;8.50;3.30;;;8.80;99.90;;;;;;5011187;28;20038;-39
2022/04/26 06:51:33;;;;;;;7.88;3.53;;;8.80;99.90;;;;;;5010639;28;20045;-39
2022/04/26 06:53:59;;;;;;;9.75;2.85;;;8.80;99.90;;;;;;5011007;28;20049;-37
2022/04/26 06:56:24;;;;;;;8.70;3.17;;;8.90;99.90;;;;;;4997696;28;20478;-39
2022/04/26 06:58:50;;;;;;;6.28;2.80;;;9.00;99.90;;;;;;4991323;28;20077;-38
2022/04/26 07:01:16;;;;;;;9.68;2.60;;;9.10;99.90;;;;;;4998270;28;20048;-38
2022/04/26 07:03:41;;;;;;;11.02;3.58;;;9.10;99.90;;;;;;5004801;28;20054;-39
2022/04/26 07:06:07;;;;;;;9.82;2.83;;;9.10;99.90;;;;;;5003417;28;20466;-39
2022/04/26 07:08:33;;;;;;;6.18;2.80;;;9.20;99.90;;;;;;4992924;28;20108;-39
2022/04/26 07:10:58;;;;;;;8.80;2.80;;;9.30;99.90;;;;;;5010420;28;20113;-39
2022/04/26 07:13:24;;;;;;;6.68;2.55;;;9.30;99.90;;;;;;5012359;28;20049;-38
2022/04/26 07:15:49;;;;;;;9.55;2.72;;;9.30;99.90;;;;;;4996086;28;20124;-38
2022/04/26 07:18:15;;;;;;;11.43;2.92;;;9.40;99.90;;;;;;5013994;28;20038;-39
2022/04/26 07:20:44;;;;;;;7.45;2.65;;;9.40;99.90;;;;;;5000397;28;20070;-39
2022/04/26 07:23:11;;;;;;;6.43;2.30;;;9.50;99.90;;;;;;4994521;28;20042;-39
2022/04/26 07:25:36;;;;;;;10.25;2.95;;;9.50;99.90;;;;;;4994297;28;20046;-40
2022/04/26 07:28:02;;;;;;;11.85;3.00;;;9.60;99.90;;;;;;4984263;28;20046;-39
2022/04/26 07:30:34;;;;;;;10.25;2.58;;;9.60;99.90;;;;;;5013643;28;20506;-39
2022/04/26 07:35:48;;;;;;;8.48;2.38;;;9.70;99.90;;;;;;5013650;28;20049;-38
2022/04/26 07:38:14;;;;;;;5.22;2.35;;;9.70;99.90;;;;;;5013778;28;20344;-38
2022/04/26 07:40:41;;;;;;;7.50;2.92;;;9.70;99.90;;;;;;4998683;28;20100;-39
2022/04/26 07:43:06;;;;;;;8.63;3.50;;;9.80;99.90;;;;;;5013803;28;20061;-38
2022/04/26 07:45:35;;;;;;;9.48;2.60;;;9.80;99.90;;;;;;5013374;28;20348;-38
2022/04/26 07:48:03;;;;;;;13.30;2.63;;;9.90;99.90;;;;;;5013528;28;20391;-40
2022/04/26 07:50:30;;;;;;;5.32;2.35;;;9.90;99.90;;;;;;5013307;28;20112;-40
2022/04/26 07:52:56;;;;;;;9.98;2.92;;;10.00;99.90;;;;;;5013530;28;20410;-39
2022/04/26 07:55:22;;;;;;;5.50;2.95;;;10.10;99.90;;;;;;5008364;28;20031;-38
2022/04/26 07:57:47;;;;;;;7.55;2.80;;;10.10;99.90;;;;;;4993525;28;20050;-38
2022/04/26 08:00:14;;;;;;;4.95;2.38;;;10.20;99.90;;;;;;4993726;28;20050;-40
2022/04/26 08:02:40;;;;;;;8.13;2.40;;;10.20;99.90;;;;;;4993725;28;20107;-39
2022/04/26 08:05:06;;;;;;;6.90;2.25;;;10.20;99.90;;;;;;4998881;28;20453;-39
2022/04/26 08:07:34;;;;;;;5.97;2.83;;;10.20;99.90;;;;;;5012841;28;20049;-52
2022/04/26 08:10:00;;;;;;;8.00;2.35;;;10.20;99.90;;;;;;5013048;28;20163;-55
2022/04/26 08:12:25;;;;;;;6.97;2.42;;;10.20;99.90;;;;;;5012905;28;20045;-53
2022/04/26 08:14:51;;;;;;;8.68;2.17;;;10.20;99.90;;;;;;5013073;28;20121;-51
2022/04/26 08:17:17;;;;;;;6.63;2.35;;;10.20;99.90;;;;;;5012813;28;20084;-54
2022/04/26 08:19:43;;;;;;;5.72;2.05;;;10.30;99.90;;;;;;5013035;28;20033;-53
2022/04/26 08:22:09;;;;;;;7.32;2.00;;;10.40;99.90;;;;;;5012843;28;20030;-54
2022/04/26 08:27:30;;;;;;;7.43;2.78;;;10.60;99.90;;;;;;5012562;28;20491;-53
2022/04/26 08:29:58;;;;;;;8.95;2.80;;;10.70;99.90;;;;;;5001859;28;20049;-54
2022/04/26 08:32:26;;;;;;;5.00;2.80;;;10.70;99.50;;;;;;5012776;28;20101;-54
2022/04/26 08:34:53;;;;;;;4.43;2.33;;;10.70;99.00;;;;;;5013064;28;20108;-55
2022/04/26 08:37:19;;;;;;;8.00;2.67;;;10.80;98.20;;;;;;5012392;28;20117;-55
2022/04/26 08:39:45;;;;;;;5.25;2.10;;;10.70;98.30;;;;;;5012842;28;20490;-55
2022/04/26 08:42:11;;;;;;;9.23;2.13;;;10.80;97.70;;;;;;5012429;28;20048;-55
2022/04/26 08:44:38;;;;;;;5.78;2.40;;;10.80;97.80;;;;;;5012767;28;20120;-55
2022/04/26 08:52:50;;;;;;;6.18;2.55;;;10.90;96.80;;;;;;5012253;28;20402;-56
2022/04/26 08:55:16;;;;;;;7.18;2.13;;;10.90;95.90;;;;;;5009025;28;20038;-55
2022/04/26 08:57:42;;;;;;;5.07;1.88;;;10.90;96.00;;;;;;4992593;28;20046;-58
2022/04/26 09:00:11;;;;;;;4.85;2.20;;;10.90;95.90;;;;;;4992927;28;20132;-54
2022/04/26 09:02:38;;;;;;;6.00;2.28;;;11.00;95.30;;;;;;5002453;28;20100;-56
2022/04/26 09:05:13;;;;;;;6.82;2.40;;;11.00;95.10;;;;;;5012391;28;20049;-51
2022/04/26 09:07:39;;;;;;;8.50;1.95;;;11.00;95.00;;;;;;5010581;28;20050;-52
2022/04/26 09:10:20;;;;;;;4.40;1.80;;;11.10;93.60;;;;;;4994554;28;20129;-55
2022/04/26 09:13:01;;;;;;;3.50;1.77;;;11.00;92.30;;;;;;4994379;28;20479;-54
2022/04/26 09:15:46;;;;;;;6.38;2.00;;;11.10;91.90;;;;;;5012076;28;20042;-55
2022/04/26 09:18:15;;;;;;;3.80;1.80;;;11.20;91.00;;;;;;5011869;28;20045;-55
2022/04/26 09:20:42;;;;;;;5.25;2.08;;;11.30;90.80;;;;;;5011878;28;20038;-60
2022/04/26 09:23:15;;;;;;;7.45;2.30;;;11.50;90.90;;;;;;5012131;28;20045;-55
2022/04/26 09:25:41;;;;;;;6.50;2.05;;;12.00;90.80;;;;;;4998815;28;20100;-57
2022/04/26 09:28:08;;;;;;;6.38;2.20;;;12.30;88.60;;;;;;5012083;28;20038;-55
2022/04/26 09:30:35;;;;;;;5.65;2.20;;;12.60;86.00;;;;;;5011807;28;20561;-52
2022/04/26 09:33:00;;;;;;;5.00;1.65;;;12.80;84.60;;;;;;5011844;28;20073;-55
2022/04/26 09:35:32;;;;;;;9.27;2.13;;;12.70;81.10;;;;;;5011365;28;20093;-54
2022/04/26 09:38:02;;;;;;;4.32;1.70;;;12.60;80.50;;;;;;4994287;28;20034;-55
2022/04/26 09:40:31;;;;;;;5.95;1.90;;;12.50;79.30;;;;;;5011852;28;20041;-52
2022/04/26 09:42:56;;;;;;;5.18;1.67;;;12.40;79.10;;;;;;5011897;28;20037;-55
2022/04/26 09:45:22;;;;;;;4.35;1.50;;;12.40;80.00;;;;;;5011752;28;20042;-54
2022/04/26 09:47:50;;;;;;;6.72;1.70;;;12.40;78.90;;;;;;5011898;28;20117;-54
2022/04/26 09:50:17;;;;;;;6.30;1.88;;;12.50;77.30;;;;;;5006962;28;20088;-56
2022/04/26 09:52:43;;;;;;;5.97;1.80;;;12.60;76.00;;;;;;5011780;28;20033;-57
2022/04/26 09:55:10;;;;;;;9.25;1.90;;;12.60;75.60;;;;;;5007472;28;20118;-55
2022/04/26 09:57:38;;;;;;;4.70;1.40;;;12.90;76.10;;;;;;4974475;28;20444;-55
2022/04/26 10:00:09;;;;;;;10.30;1.80;;;13.20;75.90;;;;;;4992066;28;20069;-51
2022/04/26 10:02:38;;;;;;;4.63;1.15;;;13.40;73.40;;;;;;4992004;28;20034;-61
2022/04/26 10:05:06;;;;;;;3.80;1.50;;;13.40;73.10;;;;;;4992122;28;20030;-53
2022/04/26 10:07:36;;;;;;;4.38;1.35;;;13.50;70.60;;;;;;4991493;28;20419;-55
2022/04/26 10:10:04;;;;;;;4.05;1.25;;;13.60;66.40;;;;;;5010835;28;20057;-56
2022/04/26 10:12:32;;;;;;;5.03;1.35;;;13.60;67.30;;;;;;5011347;28;20044;-53
2022/04/26 10:14:59;;;;;;;3.67;1.67;;;13.70;67.40;;;;;;5011339;28;20037;-55
2022/04/26 10:17:26;;;;;;;4.35;1.50;;;13.90;66.00;;;;;;5011117;28;20064;-55
2022/04/26 10:19:52;;;;;;;4.88;1.60;;;14.10;64.30;;;;;;5011569;28;20046;-56
2022/04/26 10:22:55;;;;;;;6.75;1.40;;;14.20;63.30;;;;;;5011304;28;20042;-55
2022/04/26 10:25:23;;;;;;;3.65;1.15;;;14.00;62.40;;;;;;4977552;28;20426;-56
2022/04/26 10:28:16;;;;;;;5.45;1.35;;;13.90;64.50;;;;;;5009182;28;20042;-55
2022/04/26 10:30:50;;;;;;;5.28;1.55;;;13.90;61.50;;;;;;5006468;28;20104;-55
2022/04/26 10:33:40;;;;;;;4.57;1.30;;;14.10;63.80;;;;;;4993640;28;20042;-52
2022/04/26 10:36:27;;;;;;;4.10;1.30;;;14.40;61.50;;;;;;5010994;28;20117;-54
2022/04/26 10:39:08;;;;;;;4.22;1.40;;;14.50;59.80;;;;;;4993260;28;20116;-54
2022/04/26 10:41:38;;;;;;;7.07;1.50;;;14.50;58.70;;;;;;5010943;28;20069;-55
2022/04/26 10:44:26;;;;;;;2.72;1.30;;;14.60;59.80;;;;;;5011282;28;20530;-56
2022/04/26 10:46:56;;;;;;;5.85;1.35;;;14.70;59.30;;;;;;5012106;28;20505;-55
2022/04/26 10:49:25;;;;;;;5.03;1.35;;;14.80;59.20;;;;;;5015138;28;20052;-55
2022/04/26 10:51:57;;;;;;;5.32;1.45;;;14.80;58.70;;;;;;5014619;28;20041;-54
2022/04/26 10:54:42;;;;;;;;;;;14.60;58.00;;;;;;5015227;28;20507;-55
2022/04/26 10:57:07;;;;;;;6.07;1.70;;;14.50;56.70;;;;;;5013705;28;20302;-54
2022/04/26 10:59:33;;;;;;;3.85;1.35;;;14.50;59.10;;;;;;5014858;28;20045;-55
2022/04/26 11:02:00;;;;;;;5.57;1.45;;;14.70;59.30;;;;;;5006668;28;20034;-52
2022/04/26 11:04:25;;;;;;;5.07;1.35;;;15.10;57.80;;;;;;5014708;28;20041;-55
2022/04/26 11:06:51;;;;;;;4.70;1.27;;;15.30;55.80;;;;;;5012851;28;20486;-55
2022/04/26 11:09:17;;;;;;;3.65;1.30;;;15.50;55.60;;;;;;5013963;28;20057;-55
2022/04/26 11:11:53;;;;;;;3.15;1.38;;;15.60;54.80;;;;;;5014357;28;20115;-54
2022/04/26 11:14:22;;;;;;;4.18;1.70;;;15.40;53.50;;;;;;5014120;28;20073;-55
2022/04/26 11:17:03;;;;;;;3.40;1.25;;;15.10;55.60;;;;;;5014364;28;20096;-57
2022/04/26 11:19:46;;;;;;;4.00;1.20;;;15.10;55.20;;;;;;4996872;28;20054;-55
2022/04/26 11:22:15;;;;;;;;;;;15.20;55.60;;;;;;5014351;28;20041;-55
2022/04/26 11:30:31;;;;;;;5.32;1.73;;;15.80;53.60;;;;;;4996189;28;20105;-54
2022/04/26 11:33:11;;;;;;;3.17;1.10;;;15.90;53.00;;;;;;5014050;28;20498;-56
2022/04/26 11:35:38;;;;;;;5.32;1.50;;;15.80;53.50;;;;;;5014087;28;20458;-56
2022/04/26 11:38:13;;;;;;;4.97;1.33;;;15.80;53.20;;;;;;5014074;28;20508;-56
2022/04/26 11:40:41;;;;;;;4.63;1.40;;;15.70;53.10;;;;;;4996175;28;20046;-55
2022/04/26 11:43:12;;;;;;;5.57;1.20;;;15.70;52.70;;;;;;5013898;28;20073;-53
2022/04/26 11:45:40;;;;;;;3.10;1.20;;;15.80;52.60;;;;;;5013577;28;20391;-54
2022/04/26 11:48:11;;;;;;;4.90;1.30;;;15.80;52.20;;;;;;5013832;28;20133;-55
2022/04/26 11:50:38;;;;;;;6.80;1.40;;;15.70;52.70;;;;;;4990253;28;20499;-55
2022/04/26 11:53:09;;;;;;;3.45;1.30;;;15.80;53.40;;;;;;5013624;28;20410;-55
2022/04/26 11:55:37;;;;;;;3.40;0.95;;;16.10;52.70;;;;;;5006578;28;20108;-55
2022/04/26 11:58:12;;;;;;;2.67;1.08;;;16.40;50.90;;;;;;4993273;28;20045;-55
2022/04/26 12:00:59;;;;;;;3.25;1.20;;;16.60;50.30;;;;;;4993802;28;20479;-54
2022/04/26 12:03:37;;;;;;;3.00;1.70;;;16.50;49.60;;;;;;4993678;28;20491;-52
2022/04/26 12:06:05;;;;;;;3.63;1.05;;;16.40;50.00;;;;;;4993970;28;20038;-52
2022/04/26 12:08:45;;;;;;;3.38;1.30;;;16.30;50.30;;;;;;5000005;28;20054;-55
2022/04/26 12:11:15;;;;;;;2.80;1.40;;;16.10;50.10;;;;;;4980589;28;20108;-55
2022/04/26 12:13:41;;;;;;;1.75;1.05;;;15.90;50.60;;;;;;4993597;28;20112;-53
2022/04/26 12:16:14;;;;;;;2.20;1.05;;;15.90;50.60;;;;;;4993730;28;20113;-55
2022/04/26 12:18:51;;;;;;;4.78;1.20;;;16.10;50.00;;;;;;4993475;28;20459;-53
2022/04/26 12:21:17;;;;;;;7.53;1.30;;;16.30;49.80;;;;;;4993434;28;20146;-55
2022/04/26 12:23:43;;;;;;;3.70;1.40;;;16.40;50.20;;;;;;4993598;28;20038;-52
2022/04/26 12:26:09;;;;;;;4.45;1.65;;;16.40;50.20;;;;;;4993450;28;20048;-55
2022/04/26 12:28:50;;;;;;;2.72;1.30;;;16.40;49.90;;;;;;5000988;28;20112;-55
2022/04/26 12:31:26;;;;;;;3.95;1.33;;;16.30;49.30;;;;;;5012846;28;20046;-55
2022/04/26 12:34:12;;;;;;;10.85;1.52;;;16.10;49.90;;;;;;5010255;28;20113;-55
2022/04/26 12:36:54;;;;;;;2.63;1.20;;;16.00;50.60;;;;;;4993425;28;20553;-55
2022/04/26 12:39:21;;;;;;;5.97;1.50;;;16.20;50.20;;;;;;4975411;28;20057;-55
2022/04/26 12:41:52;;;;;;;5.28;1.40;;;16.30;49.80;;;;;;4993114;28;20281;-55
2022/04/26 12:44:19;;;;;;;2.08;1.13;;;16.40;48.40;;;;;;4982700;28;20033;-58
2022/04/26 12:52:49;;;;;;;7.95;1.63;;;16.90;46.80;;;;;;5003459;28;20120;-55
2022/04/26 12:55:31;;;;;;;3.20;1.23;;;16.60;48.20;;;;;;5008576;28;20034;-55
2022/04/26 12:58:00;;;;;;;4.80;1.00;;;16.40;47.50;;;;;;4988330;28;20542;-56
2022/04/26 13:00:27;;;;;;;4.30;1.15;;;16.30;48.10;;;;;;4998634;28;20093;-56
2022/04/26 13:02:56;;;;;;;3.90;1.10;;;16.50;47.90;;;;;;5006228;28;20528;-56
2022/04/26 13:05:23;;;;;;;2.95;1.33;;;16.90;47.70;;;;;;4994951;28;20045;-55
2022/04/26 13:07:49;;;;;;;2.35;1.17;;;17.20;47.70;;;;;;5011835;28;20050;-56
2022/04/26 13:10:16;;;;;;;4.40;1.50;;;17.20;47.00;;;;;;5012141;28;20054;-51
2022/04/26 13:12:42;;;;;;;5.22;1.85;;;17.00;46.70;;;;;;5012371;28;20103;-54
2022/04/26 13:15:09;;;;;;;5.55;1.40;;;17.00;47.10;;;;;;5011057;28;20396;-53
2022/04/26 13:17:36;;;;;;;2.85;1.30;;;17.30;47.00;;;;;;5012025;28;20060;-53
2022/04/26 13:20:06;;;;;;;5.93;1.52;;;17.50;45.80;;;;;;5012514;28;20459;-53
2022/04/26 13:22:36;;;;;;;3.42;1.48;;;17.50;45.40;;;;;;5012052;28;20108;-54
2022/04/26 13:25:03;;;;;;;6.43;1.45;;;17.40;45.60;;;;;;5012360;28;20118;-53
2022/04/26 13:27:33;;;;;;;2.13;1.08;;;17.10;46.00;;;;;;5011927;28;20095;-40
2022/04/26 13:29:59;;;;;;;1.92;0.98;;;17.00;46.60;;;;;;5012131;28;20046;-41
2022/04/26 13:32:25;;;;;;;4.25;1.55;;;17.20;47.20;;;;;;5010254;28;20091;-40
2022/04/26 13:34:52;;;;;;;3.13;1.20;;;17.90;45.50;;;;;;4994116;28;20061;-40
2022/04/26 13:37:19;;;;;;;3.97;1.38;;;18.80;43.30;;;;;;5011374;28;20042;-40
2022/04/26 13:39:45;;;;;;;2.50;1.30;;;19.60;41.70;;;;;;5011545;28;20120;-43
2022/04/26 13:42:15;;;;;;;4.43;1.10;;;20.00;40.70;;;;;;4994304;28;20474;-41
2022/04/26 13:44:41;;;;;;;3.88;1.27;;;20.60;39.20;;;;;;5011899;28;20057;-41
2022/04/26 13:47:08;;;;;;;4.30;1.30;;;21.10;38.10;;;;;;5011772;28;20082;-41
2022/04/26 13:49:39;;;;;;;3.38;1.10;;;21.30;37.40;;;;;;4991114;28;20104;-39
2022/04/26 13:52:06;;;;;;;2.83;1.10;;;21.80;37.10;;;;;;5010357;28;20030;-40
2022/04/26 13:54:33;;;;;;;7.63;1.40;;;22.30;35.70;;;;;;5011417;28;20038;-41
2022/04/26 13:56:58;;;;;;;4.75;1.25;;;22.30;35.60;;;;;;4992226;28;20040;-39
2022/04/26 13:59:25;;;;;;;5.00;1.10;;;22.20;35.30;;;;;;4991729;28;20035;-42
2022/04/26 14:01:52;;;;;;;1.80;1.10;;;22.30;34.80;;;;;;4993329;28;20507;-41
2022/04/26 14:04:18;;;;;;;3.53;1.10;;;22.70;34.20;;;;;;5011252;28;20121;-40
2022/04/26 14:06:44;;;;;;;4.38;1.40;;;22.70;34.20;;;;;;5011123;28;20045;-41
2022/04/26 14:09:10;;;;;;;2.70;1.35;;;22.10;35.10;;;;;;5011498;28;20058;-40
2022/04/26 14:11:35;;;;;;;3.97;1.27;;;22.00;35.10;;;;;;5006079;28;20059;-41
2022/04/26 14:22:14;;;;;;;5.13;1.30;;;22.80;33.00;;;;;;5013136;28;20046;-41
2022/04/26 14:24:40;;;;;;;2.00;1.10;;;23.20;33.50;;;;;;5002168;28;20064;-42
2022/04/26 14:27:05;;;;;;;5.63;1.40;;;23.30;32.90;;;;;;5015010;28;20402;-41
2022/04/26 14:29:32;;;;;;;3.25;1.75;;;23.30;33.20;;;;;;5005244;28;20050;-41
2022/04/26 14:31:58;;;;;;;3.33;1.20;;;23.00;32.70;;;;;;5015127;28;20120;-43
2022/04/26 14:34:24;;;;;;;3.53;1.30;;;23.00;33.20;;;;;;5014946;28;20125;-41
2022/04/26 14:36:49;;;;;;;4.10;1.50;;;23.10;33.90;;;;;;5015480;28;20272;-46
2022/04/26 14:39:16;;;;;;;2.88;1.45;;;23.50;33.40;;;;;;4995892;28;20073;-41
2022/04/26 14:41:44;;;;;;;2.58;1.20;;;23.90;33.00;;;;;;4995361;28;20042;-41
2022/04/26 14:44:10;;;;;;;3.95;1.38;;;23.10;33.10;;;;;;5002205;28;20501;-42
2022/04/26 14:46:36;;;;;;;2.15;1.40;;;22.00;35.40;;;;;;5014705;28;20045;-44
2022/04/26 14:49:03;;;;;;;2.33;1.20;;;20.80;37.40;;;;;;5015015;28;20038;-41
2022/04/26 14:51:29;;;;;;;2.80;1.55;;;21.00;37.60;;;;;;5013463;28;20034;-43
2022/04/26 14:53:55;;;;;;;3.33;1.48;;;21.80;35.90;;;;;;5014947;28;20459;-41
2022/04/26 14:56:21;;;;;;;2.50;1.40;;;22.50;34.30;;;;;;5000910;28;20614;-41
2022/04/26 14:58:49;;;;;;;6.50;1.58;;;23.10;33.30;;;;;;4995287;28;20034;-41
2022/04/26 15:01:15;;;;;;;2.33;1.20;;;23.70;33.10;;;;;;4994598;28;20085;-41
2022/04/26 15:03:40;;;;;;;3.15;1.20;;;23.90;32.50;;;;;;5014423;28;20530;-43
2022/04/26 15:06:06;;;;;;;4.38;1.38;;;24.20;32.00;;;;;;5001420;28;20030;-41
2022/04/26 15:11:16;;;;;;;4.95;1.95;;;24.30;31.50;;;;;;5014145;28;20242;-41
2022/04/26 15:16:38;;;;;;;5.53;1.63;;;23.30;33.00;;;;;;5000880;28;20529;-50
2022/04/26 15:19:09;;;;;;;4.40;1.50;;;23.10;34.80;;;;;;4996398;28;20049;-43
2022/04/26 15:21:35;;;;;;;5.32;1.60;;;23.00;33.60;;;;;;5014024;28;20510;-39
2022/04/26 15:24:02;;;;;;;8.88;1.70;;;22.20;33.80;;;;;;5014049;28;20072;-41
2022/04/26 15:26:28;;;;;;;2.67;1.50;;;21.60;35.90;;;;;;5014041;28;20041;-41
2022/04/26 15:28:55;;;;;;;4.00;1.42;;;21.30;36.40;;;;;;5013994;28;20483;-42
2022/04/26 15:31:21;;;;;;;2.95;1.50;;;21.00;36.50;;;;;;4996577;28;20038;-40
2022/04/26 15:33:49;;;;;;;5.03;1.60;;;20.90;36.90;;;;;;4998648;28;20065;-40
2022/04/26 15:36:16;;;;;;;3.92;1.65;;;21.10;37.40;;;;;;4977051;28;20375;-40
2022/04/26 15:38:42;;;;;;;3.88;1.30;;;21.60;35.90;;;;;;4994274;28;20049;-42
2022/04/26 15:41:08;;;;;;;4.32;1.73;;;22.20;34.90;;;;;;4994054;28;20260;-41
2022/04/26 15:43:35;;;;;;;2.58;1.67;;;22.80;34.30;;;;;;4977042;28;20144;-41
2022/04/26 15:46:03;;;;;;;3.45;1.35;;;23.20;33.20;;;;;;4994086;28;20410;-41
2022/04/26 15:48:29;;;;;;;3.65;1.38;;;23.50;32.60;;;;;;4994376;28;20539;-42
2022/04/26 15:50:56;;;;;;;4.35;1.58;;;23.80;32.70;;;;;;5002099;28;20065;-41
2022/04/26 15:53:22;;;;;;;3.90;1.35;;;24.00;32.00;;;;;;5013861;28;20050;-42
2022/04/26 15:55:48;;;;;;;3.75;1.52;;;24.20;31.40;;;;;;5005218;28;20571;-41
2022/04/26 15:58:14;;;;;;;5.38;1.60;;;24.20;31.10;;;;;;4994321;28;20054;-42
2022/04/26 16:00:40;;;;;;;3.45;1.73;;;24.20;31.30;;;;;;4993907;28;20071;-41
2022/04/26 16:03:05;;;;;;;2.85;1.40;;;23.90;32.40;;;;;;4994200;28;20045;-41
2022/04/26 16:05:31;;;;;;;2.75;1.60;;;23.80;32.90;;;;;;4976503;28;20046;-41
2022/04/26 16:07:58;;;;;;;4.43;1.50;;;23.70;31.40;;;;;;5008567;28;20046;-42
2022/04/26 16:21:25;;;;;;;3.70;1.55;;;24.60;30.40;;;;;;5012682;28;20053;-43
2022/04/26 16:23:54;;;;;;;4.38;1.90;;;24.80;30.10;;;;;;5013157;28;20033;-42
2022/04/26 16:26:22;;;;;;;4.15;1.70;;;24.90;29.50;;;;;;4995264;28;20313;-42
2022/04/26 16:28:48;;;;;;;4.97;1.50;;;24.80;29.40;;;;;;5004005;28;20089;-41
2022/04/26 16:31:15;;;;;;;2.60;1.38;;;24.80;29.10;;;;;;5012582;28;20042;-41
2022/04/26 16:33:41;;;;;;;4.40;1.67;;;24.60;29.30;;;;;;5012788;28;20495;-42
2022/04/26 16:36:08;;;;;;;2.40;1.48;;;24.30;29.20;;;;;;5012848;28;20041;-44
2022/04/26 16:38:36;;;;;;;3.60;1.50;;;24.50;29.60;;;;;;5012833;28;20045;-42
2022/04/26 16:41:04;;;;;;;3.45;1.50;;;24.30;29.40;;;;;;5012791;28;20053;-43
2022/04/26 16:43:30;;;;;;;2.30;1.33;;;24.20;29.40;;;;;;5012844;28;20112;-42
2022/04/26 16:45:56;;;;;;;4.82;1.63;;;24.30;29.70;;;;;;5012358;28;20098;-42
2022/04/26 16:48:22;;;;;;;2.72;1.50;;;24.10;29.20;;;;;;5012989;28;20041;-41
2022/04/26 16:50:49;;;;;;;2.67;1.27;;;24.00;29.30;;;;;;5011393;28;20073;-43
2022/04/26 16:53:14;;;;;;;2.88;1.40;;;23.90;29.70;;;;;;5012766;28;20046;-41
2022/04/26 16:55:40;;;;;;;6.45;1.83;;;23.80;29.90;;;;;;5002889;28;20041;-43
2022/04/26 16:58:06;;;;;;;4.90;1.80;;;23.50;30.00;;;;;;4993060;28;20038;-42
2022/04/26 17:00:33;;;;;;;5.55;1.83;;;23.50;30.40;;;;;;4959201;28;20057;-42
2022/04/26 17:02:59;;;;;;;3.80;1.80;;;23.00;30.70;;;;;;5007857;28;20037;-42
2022/04/26 17:05:27;;;;;;;3.65;1.65;;;22.40;31.90;;;;;;5012517;28;20509;-42
2022/04/26 17:07:55;;;;;;;3.90;1.45;;;21.80;33.10;;;;;;5012073;28;20110;-42
2022/04/26 17:10:22;;;;;;;4.03;1.60;;;21.60;33.50;;;;;;5012529;28;20046;-44
2022/04/26 17:12:52;;;;;;;3.83;1.60;;;21.70;33.20;;;;;;5010241;28;20153;-41
2022/04/26 17:15:18;;;;;;;4.22;1.85;;;22.00;33.00;;;;;;5001988;28;20132;-43
2022/04/26 17:17:44;;;;;;;4.78;1.70;;;22.10;34.00;;;;;;4994610;28;20522;-41
2022/04/26 17:20:12;;;;;;;4.70;1.75;;;22.20;32.80;;;;;;4994024;28;20046;-42